Tokyo Triumph — 9V3477 — position and weather

sailwx.info

Track history (hours):
 
Tides and Currents Weather Stations Pressure Air Temp Water Temp Dewpoint Dewpoint Depression Visibility Wind Speed Wind Dir Waves Ship Positions

Tokyo Triumph

Last reported at 2018-Jan-20 11:01 UTC. Time now 2018-Jan-22 13:47 UTC.
Position N 36°18' E 014°55'.

Length 365 m; draft 12.9 m.

Type: Cargo ship. MMSI: 563020400.

Date/timePositionNaut miles runAvg speedWind from/ knotsBaromVisibWave heightAir tempDewpointWater temp
2018-Jan-20 11:01N 36°18' E 014°55'017.8
2018-Jan-20 11:00N 36°18' E 014°55'917.7
2018-Jan-20 10:30N 36°22' E 014°45'917.6
2018-Jan-20 10:00N 36°24' E 014°35'1020.8
2018-Jan-20 09:30N 36°27' E 014°22'1122.3
2018-Jan-20 09:00N 36°31' E 014°09'1121.8
2018-Jan-20 08:30N 36°34' E 013°56'917.9
2018-Jan-20 07:59N 36°36' E 013°45'  
2018-Jan-18 03:08N 36°03' W 004°37'217.8
2018-Jan-18 03:00N 36°03' W 004°40'917.8
2018-Jan-18 02:31N 36°02' W 004°51'918.3
2018-Jan-18 02:01N 36°01' W 005°02'918.9
2018-Jan-18 01:30N 35°59' W 005°13'918.0
2018-Jan-18 01:00N 35°58' W 005°24'1616.0
2018-Jan-18 00:00N 35°55' W 005°44'114.8
2018-Jan-17 23:57N 35°55' W 005°45'  
2018-Jan-12 14:59N 51°57' E 004°04'0 0.0
2018-Jan-12 14:26N 51°57' E 004°04'0 0.0
2018-Jan-12 14:00N 51°57' E 004°04'1 1.4
2018-Jan-12 13:30N 51°57' E 004°05'2 5.0
2018-Jan-12 13:00N 51°59' E 004°03'612.2
2018-Jan-12 12:31N 52°01' E 003°53'510.8
2018-Jan-12 12:00N 52°02' E 003°44'4 8.8
2018-Jan-12 11:30N 52°04' E 003°39'713.3
2018-Jan-12 11:00N 52°08' E 003°30'713.4
2018-Jan-12 10:30N 52°12' E 003°20'713.4
2018-Jan-12 10:00N 52°18' E 003°23'713.9
2018-Jan-12 09:30N 52°25' E 003°27'714.4
2018-Jan-12 09:00N 52°32' E 003°29'713.9
2018-Jan-12 08:30N 52°39' E 003°32'714.5
2018-Jan-12 07:59N 52°45' E 003°39'714.6
2018-Jan-12 07:30N 52°50' E 003°45'815.2
2018-Jan-12 07:00N 52°55' E 003°55'815.8
2018-Jan-12 06:30N 53°00' E 004°06'917.0
2018-Jan-12 06:00N 53°05' E 004°17'817.0
2018-Jan-12 05:30N 53°12' E 004°25'917.2
2018-Jan-12 05:00N 53°20' E 004°31'917.1
2018-Jan-12 04:30N 53°28' E 004°38'817.2
2018-Jan-12 04:00N 53°31' E 004°51'917.0
2018-Jan-12 03:30N 53°34' E 005°04'816.7
2018-Jan-12 03:00N 53°37' E 005°17'816.3
2018-Jan-12 02:30N 53°39' E 005°31'816.4
2018-Jan-12 02:00N 53°42' E 005°44'916.5
2018-Jan-12 01:28N 53°45' E 005°58'816.4
2018-Jan-12 00:57N 53°48' E 006°11'5216.9
2018-Jan-11 21:51N 54°01' E 007°37'618.1
2018-Jan-11 21:30N 54°01' E 007°48'918.8
2018-Jan-11 21:00N 54°01' E 008°04'713.9
2018-Jan-11 20:30N 54°00' E 008°16'816.7
2018-Jan-11 20:00N 53°58' E 008°29'815.6
2018-Jan-11 19:30N 53°55' E 008°41'611.6
2018-Jan-11 19:00N 53°50' E 008°48'510.6
2018-Jan-11 18:30N 53°51' E 008°57'611.7
2018-Jan-11 18:01N 53°53' E 009°06'5 9.8
2018-Jan-11 17:30N 53°53' E 009°14'611.6
2018-Jan-11 17:00N 53°49' E 009°22'713.1
2018-Jan-11 16:30N 53°44' E 009°28'612.3
2018-Jan-11 16:00N 53°38' E 009°32'713.4
2018-Jan-11 15:30N 53°34' E 009°41'5 9.9
2018-Jan-11 15:00N 53°33' E 009°49'1 1.2
2018-Jan-11 14:30N 53°33' E 009°50'1 1.6
2018-Jan-11 14:00N 53°33' E 009°52'2 3.8
2018-Jan-11 13:30N 53°32' E 009°55'0 0.1
2018-Jan-11 12:59N 53°32' E 009°55'0 0.0
2018-Jan-11 12:29N 53°32' E 009°55'0 0.0
2018-Jan-11 11:59N 53°32' E 009°55'0 0.0
2018-Jan-11 11:29N 53°32' E 009°55'0 0.0
2018-Jan-11 10:59N 53°32' E 009°55'0 0.0
2018-Jan-11 10:29N 53°32' E 009°55'0 0.0
2018-Jan-11 09:59N 53°32' E 009°55'0 0.0
2018-Jan-11 09:29N 53°32' E 009°55'0 0.0
2018-Jan-11 08:59N 53°32' E 009°55'0 0.0
2018-Jan-11 08:29N 53°32' E 009°55'0 0.0
2018-Jan-11 07:59N 53°32' E 009°55'0 0.0
2018-Jan-11 07:29N 53°32' E 009°55'0 0.0
2018-Jan-11 06:59N 53°32' E 009°55'0 0.0
2018-Jan-11 06:29N 53°32' E 009°55'0 0.0
2018-Jan-11 05:59N 53°32' E 009°55'0 0.0
2018-Jan-11 05:29N 53°32' E 009°55'0 0.0
2018-Jan-11 04:59N 53°32' E 009°55'0 0.0
2018-Jan-11 04:29N 53°32' E 009°55'0 0.0
2018-Jan-11 03:59N 53°32' E 009°55'0 0.0
2018-Jan-11 03:29N 53°32' E 009°55'0 0.0
2018-Jan-11 02:59N 53°32' E 009°55'0 0.0
2018-Jan-11 02:29N 53°32' E 009°55'0 0.0
2018-Jan-11 01:59N 53°32' E 009°55'0 0.0
2018-Jan-11 01:29N 53°32' E 009°55'0 0.0
2018-Jan-11 00:59N 53°32' E 009°55'0 0.0
2018-Jan-11 00:29N 53°32' E 009°55'0 0.0
2018-Jan-10 23:59N 53°32' E 009°55'0 0.0
2018-Jan-10 23:29N 53°32' E 009°55'0 0.0
2018-Jan-10 22:59N 53°32' E 009°55'0 0.0
2018-Jan-10 22:29N 53°32' E 009°55'0 0.0
2018-Jan-10 21:59N 53°32' E 009°55'0 0.0
2018-Jan-10 21:30N 53°32' E 009°55'0 0.0
2018-Jan-10 21:00N 53°32' E 009°55'0 0.0
2018-Jan-10 20:30N 53°32' E 009°55'0 0.0
2018-Jan-10 20:00N 53°32' E 009°55'0 0.0
2018-Jan-10 19:30N 53°32' E 009°55'0 0.0
2018-Jan-10 19:00N 53°32' E 009°55'0 0.0
2018-Jan-10 18:30N 53°32' E 009°55'0 0.0
2018-Jan-10 18:00N 53°32' E 009°55'0 0.1
2018-Jan-10 17:30N 53°32' E 009°55'0 0.0
2018-Jan-10 17:00N 53°32' E 009°55'0 0.0
2018-Jan-10 16:30N 53°32' E 009°55'0 0.0
2018-Jan-10 16:00N 53°32' E 009°55'0 0.0
2018-Jan-10 15:30N 53°32' E 009°55'0 0.0
2018-Jan-10 15:00N 53°32' E 009°55'0 0.0
2018-Jan-10 14:30N 53°32' E 009°55'0 0.0
2018-Jan-10 14:00N 53°32' E 009°55'0 0.0
2018-Jan-10 13:30N 53°32' E 009°55'0 0.0
2018-Jan-10 13:00N 53°32' E 009°55'0 0.0
2018-Jan-10 12:30N 53°32' E 009°55'0 0.0
2018-Jan-10 12:00N 53°32' E 009°55'0 0.0
2018-Jan-10 11:30N 53°32' E 009°55'  
Track history (hours):
 
Tides and Currents Weather Stations Pressure Air Temp Water Temp Dewpoint Dewpoint Depression Visibility Wind Speed Wind Dir Waves Ship Positions

Tokyo Triumph

Last reported at 2018-Jan-20 11:01 UTC. Time now 2018-Jan-22 13:47 UTC.
Position N 36°18' E 014°55'.

Length 365 m; draft 12.9 m.

Type: Cargo ship. MMSI: 563020400.

Date/timePositionNaut miles runAvg speedWind from/ knotsBaromVisibWave heightAir tempDewpointWater temp
2018-Jan-20 11:01N 36°18' E 014°55'017.8
2018-Jan-20 11:00N 36°18' E 014°55'917.7
2018-Jan-20 10:30N 36°22' E 014°45'917.6
2018-Jan-20 10:00N 36°24' E 014°35'1020.8
2018-Jan-20 09:30N 36°27' E 014°22'1122.3
2018-Jan-20 09:00N 36°31' E 014°09'1121.8
2018-Jan-20 08:30N 36°34' E 013°56'917.9
2018-Jan-20 07:59N 36°36' E 013°45'  
2018-Jan-18 03:08N 36°03' W 004°37'217.8
2018-Jan-18 03:00N 36°03' W 004°40'917.8
2018-Jan-18 02:31N 36°02' W 004°51'918.3
2018-Jan-18 02:01N 36°01' W 005°02'918.9
2018-Jan-18 01:30N 35°59' W 005°13'918.0
2018-Jan-18 01:00N 35°58' W 005°24'1616.0
2018-Jan-18 00:00N 35°55' W 005°44'114.8
2018-Jan-17 23:57N 35°55' W 005°45'  
2018-Jan-12 14:59N 51°57' E 004°04'0 0.0
2018-Jan-12 14:26N 51°57' E 004°04'0 0.0
2018-Jan-12 14:00N 51°57' E 004°04'1 1.4
2018-Jan-12 13:30N 51°57' E 004°05'2 5.0
2018-Jan-12 13:00N 51°59' E 004°03'612.2
2018-Jan-12 12:31N 52°01' E 003°53'510.8
2018-Jan-12 12:00N 52°02' E 003°44'4 8.8
2018-Jan-12 11:30N 52°04' E 003°39'713.3
2018-Jan-12 11:00N 52°08' E 003°30'713.4
2018-Jan-12 10:30N 52°12' E 003°20'713.4
2018-Jan-12 10:00N 52°18' E 003°23'713.9
2018-Jan-12 09:30N 52°25' E 003°27'714.4
2018-Jan-12 09:00N 52°32' E 003°29'713.9
2018-Jan-12 08:30N 52°39' E 003°32'714.5
2018-Jan-12 07:59N 52°45' E 003°39'714.6
2018-Jan-12 07:30N 52°50' E 003°45'815.2
2018-Jan-12 07:00N 52°55' E 003°55'815.8
2018-Jan-12 06:30N 53°00' E 004°06'917.0
2018-Jan-12 06:00N 53°05' E 004°17'817.0
2018-Jan-12 05:30N 53°12' E 004°25'917.2
2018-Jan-12 05:00N 53°20' E 004°31'917.1
2018-Jan-12 04:30N 53°28' E 004°38'817.2
2018-Jan-12 04:00N 53°31' E 004°51'917.0
2018-Jan-12 03:30N 53°34' E 005°04'816.7
2018-Jan-12 03:00N 53°37' E 005°17'816.3
2018-Jan-12 02:30N 53°39' E 005°31'816.4
2018-Jan-12 02:00N 53°42' E 005°44'916.5
2018-Jan-12 01:28N 53°45' E 005°58'816.4
2018-Jan-12 00:57N 53°48' E 006°11'5216.9
2018-Jan-11 21:51N 54°01' E 007°37'618.1
2018-Jan-11 21:30N 54°01' E 007°48'918.8
2018-Jan-11 21:00N 54°01' E 008°04'713.9
2018-Jan-11 20:30N 54°00' E 008°16'816.7
2018-Jan-11 20:00N 53°58' E 008°29'815.6
2018-Jan-11 19:30N 53°55' E 008°41'611.6
2018-Jan-11 19:00N 53°50' E 008°48'510.6
2018-Jan-11 18:30N 53°51' E 008°57'611.7
2018-Jan-11 18:01N 53°53' E 009°06'5 9.8
2018-Jan-11 17:30N 53°53' E 009°14'611.6
2018-Jan-11 17:00N 53°49' E 009°22'713.1
2018-Jan-11 16:30N 53°44' E 009°28'612.3
2018-Jan-11 16:00N 53°38' E 009°32'713.4
2018-Jan-11 15:30N 53°34' E 009°41'5 9.9
2018-Jan-11 15:00N 53°33' E 009°49'1 1.2
2018-Jan-11 14:30N 53°33' E 009°50'1 1.6
2018-Jan-11 14:00N 53°33' E 009°52'2 3.8
2018-Jan-11 13:30N 53°32' E 009°55'0 0.1
2018-Jan-11 12:59N 53°32' E 009°55'0 0.0
2018-Jan-11 12:29N 53°32' E 009°55'0 0.0
2018-Jan-11 11:59N 53°32' E 009°55'0 0.0
2018-Jan-11 11:29N 53°32' E 009°55'0 0.0
2018-Jan-11 10:59N 53°32' E 009°55'0 0.0
2018-Jan-11 10:29N 53°32' E 009°55'0 0.0
2018-Jan-11 09:59N 53°32' E 009°55'0 0.0
2018-Jan-11 09:29N 53°32' E 009°55'0 0.0
2018-Jan-11 08:59N 53°32' E 009°55'0 0.0
2018-Jan-11 08:29N 53°32' E 009°55'0 0.0
2018-Jan-11 07:59N 53°32' E 009°55'0 0.0
2018-Jan-11 07:29N 53°32' E 009°55'0 0.0
2018-Jan-11 06:59N 53°32' E 009°55'0 0.0
2018-Jan-11 06:29N 53°32' E 009°55'0 0.0
2018-Jan-11 05:59N 53°32' E 009°55'0 0.0
2018-Jan-11 05:29N 53°32' E 009°55'0 0.0
2018-Jan-11 04:59N 53°32' E 009°55'0 0.0
2018-Jan-11 04:29N 53°32' E 009°55'0 0.0
2018-Jan-11 03:59N 53°32' E 009°55'0 0.0
2018-Jan-11 03:29N 53°32' E 009°55'0 0.0
2018-Jan-11 02:59N 53°32' E 009°55'0 0.0
2018-Jan-11 02:29N 53°32' E 009°55'0 0.0
2018-Jan-11 01:59N 53°32' E 009°55'0 0.0
2018-Jan-11 01:29N 53°32' E 009°55'0 0.0
2018-Jan-11 00:59N 53°32' E 009°55'0 0.0
2018-Jan-11 00:29N 53°32' E 009°55'0 0.0
2018-Jan-10 23:59N 53°32' E 009°55'0 0.0
2018-Jan-10 23:29N 53°32' E 009°55'0 0.0
2018-Jan-10 22:59N 53°32' E 009°55'0 0.0
2018-Jan-10 22:29N 53°32' E 009°55'0 0.0
2018-Jan-10 21:59N 53°32' E 009°55'0 0.0
2018-Jan-10 21:30N 53°32' E 009°55'0 0.0
2018-Jan-10 21:00N 53°32' E 009°55'0 0.0
2018-Jan-10 20:30N 53°32' E 009°55'0 0.0
2018-Jan-10 20:00N 53°32' E 009°55'0 0.0
2018-Jan-10 19:30N 53°32' E 009°55'0 0.0
2018-Jan-10 19:00N 53°32' E 009°55'0 0.0
2018-Jan-10 18:30N 53°32' E 009°55'0 0.0
2018-Jan-10 18:00N 53°32' E 009°55'0 0.1
2018-Jan-10 17:30N 53°32' E 009°55'0 0.0
2018-Jan-10 17:00N 53°32' E 009°55'0 0.0
2018-Jan-10 16:30N 53°32' E 009°55'0 0.0
2018-Jan-10 16:00N 53°32' E 009°55'0 0.0
2018-Jan-10 15:30N 53°32' E 009°55'0 0.0
2018-Jan-10 15:00N 53°32' E 009°55'0 0.0
2018-Jan-10 14:30N 53°32' E 009°55'0 0.0
2018-Jan-10 14:00N 53°32' E 009°55'0 0.0
2018-Jan-10 13:30N 53°32' E 009°55'0 0.0
2018-Jan-10 13:00N 53°32' E 009°55'0 0.0
2018-Jan-10 12:30N 53°32' E 009°55'0 0.0
2018-Jan-10 12:00N 53°32' E 009°55'0 0.0
2018-Jan-10 11:30N 53°32' E 009°55'  

Dump ship's entire track history